Main page
METAR-TAF:

METAR-TAF

Airports :

Vientiane, Laos

Wattay International Airport

latitude: 17-57N, longitude: 102-34E, elevation: 171 m

Current weather observation

The report was made 38 minutes ago, at 08:00 UTC
Wind 6 kt from the South/Southeast
Temperature 33°C
Humidity 36%
Pressure 1006 hPa
Visibility: 9000 m
Broken clouds at a height of 20000 ft

METAR: VLVT 280800Z 16006KT 9000 BKN200 33/16 Q1006 NOSIG

Time: 15:38 (08:38 UTC)

Forecast

The report was made 3 hours and 38 minutes ago, at 05:00 UTC
Forecast valid from 28 at 06 UTC to 29 at 06 UTC
Wind 8 kt from the East/Northeast
Visibility: 9000 m
Scattered clouds at a height of 2000 ft
Few clouds at a height of 5000 ft
Scattered clouds at a height of 20000 ft
Temporary
from 28 at 12 UTC to 28 at 16 UTC
Visibility: 4000 m
Few clouds at a height of 5000 ft
Scattered clouds at a height of 20000 ft
mist

TAF: VLVT 280500Z 2806/2906 06008KT 9000 SCT020 FEW050 SCT200 TEMPO 2812/2816 4000 BR FEW050 SCT200

Weather observations and forecasts of more than 4000 airports (METAR and TAF reports).

The available stations are represented by yellow and red dots on the map.

Hover mouse over dot to see the name of the station.

Then click to see weather observations and forecasts.

To change the map : click on the green buttons with a black cross to zoom in, on the green button with a dash to zoom out, or on the green arrows for adjacent maps.


METAR-TAF: